NATURA VA

 METAR AND TAF INFORMATION
METAR FOR LEXJ
ADDS - METARS form results

(2238 UTC 23 March 2019)
Data provider http://aviationweather.gov/metar/data/
 
METAR text: LEXJ 232230Z AUTO 00000KT 9000 NCD 10/09 Q1026
Conditions at: LEXJ (SANTANDER/PARAYA, ES) observed 2230 UTC 23 March 2019
Temperature: 10.0°C (50°F)
Dewpoint: 9.0°C (48°F) [RH = 93%]
Pressure (altimeter): 30.30 inches Hg (1026.0 mb)
Winds: calm
Visibility: 6 miles ( 9 km)
Ceiling: at least 12,000 feet AGL
Clouds: sky clear below 12,000 feet AGL
Weather: no significant weather observed at this time

METAR text: LEXJ 232200Z 25002KT CAVOK 11/10 Q1026
Conditions at: LEXJ (SANTANDER/PARAYA, ES) observed 2200 UTC 23 March 2019
Temperature: 11.0°C (52°F)
Dewpoint: 10.0°C (50°F) [RH = 94%]
Pressure (altimeter): 30.30 inches Hg (1026.0 mb)
Winds: from the WSW (250 degrees) at 2 MPH (2 knots; 1.0 m/s)
Visibility: 6 or more miles (10+ km)
Ceiling: ceiling and visibility are OK
Clouds: unknown
Weather: no significant weather observed at this time

Forecast for: LEXJ (SANTANDER/PARAYA, ES)
Text: TAF LEXJ 232000Z 2321/2421 VRB02KT 8000 NSC TX19/2413Z TN07/2406Z
Forecast period: 2100 UTC 23 March 2019 to 2100 UTC 24 March 2019
Forecast type: FROM: standard forecast or significant change
Winds: variable direction winds at 2 MPH (2 knots; 1.0 m/s)
Visibility: 5 miles (8 km)
Ceiling: unknown
Clouds: missing
Weather: no significant weather forecast for this period
Text: TEMPO 2400/2409 3000 BR
Forecast period: 0000 to 0900 UTC 24 March 2019
Forecast type: TEMPORARY: The following changes expected for less than half the time period
Visibility: 1.86 miles (2.99 km)
Ceiling: unknown
Clouds: missing
Weather: BR  (mist)
Text: PROB30
Forecast period: 0000 to 1000 UTC 24 March 2019
Forecast type: TEMPORARY: The following changes expected for less than half the time period
Winds: from the NW (320 degrees) at 12 MPH (10 knots; 5.1 m/s)
Visibility: 0.93 miles (1.50 km)
Ceiling: 500 feet AGL
Clouds: broken clouds at 500 feet AGL
Weather: BR  (mist)
Text: TEMPO 2400/2410 32010KT 1500 BR BKN005
Forecast period: 1100 to 1800 UTC 24 March 2019
Forecast type: TEMPORARY: The following changes expected for less than half the time period
Winds: from the NE (50 degrees) at 12 MPH (10 knots; 5.1 m/s)
Visibility: missing
Ceiling: unknown
Clouds: missing
Weather: no significant weather forecast for this period

 AIRPORT MAP

 RUNWAY INFORMATION
Runway 11 Runway length 7612 ft Runway width 148 ft
Runway elevation 11 ft Runway displaced threshold 0 ft Runway heading 110
Runway 29 Runway length 7612 ft Runway width 148 ft
Runway elevation 12 ft Runway displaced threshold 0 ft Runway heading 290

 AIRPORT FREQUENCIES
Type APP Name APP Frequency 118.375 MHZ
Type GND Name GND Frequency 121.7 MHZ
Type TWR Name TWR Frequency 118.1 MHZ

 AIRPORT NEAR NAVIGATION AIDS
Type NDB Name Santander Frequency 416 KHZ
Type VOR-DME Name Santander Frequency 115300 KHZ



Powered by Virtual Airlines Manager [v2.6.2]